sensor_id;sensor_type;location;lat;lon;timestamp;pressure;altitude;pressure_sealevel;temperature;humidity
57048;BME280;42934;54.294;18.598;2023-05-23T00:00:11;100829.38;;;14.08;64.67
57048;BME280;42934;54.294;18.598;2023-05-23T00:03:02;100834.59;;;14.09;64.32
57048;BME280;42934;54.294;18.598;2023-05-23T00:05:31;100834.66;;;14.08;64.20
57048;BME280;42934;54.294;18.598;2023-05-23T00:08:00;100826.88;;;14.05;64.40
57048;BME280;42934;54.294;18.598;2023-05-23T00:10:31;100820.78;;;14.03;64.36
57048;BME280;42934;54.294;18.598;2023-05-23T00:12:59;100827.09;;;14.00;64.48
57048;BME280;42934;54.294;18.598;2023-05-23T00:15:29;100818.38;;;13.98;64.40
57048;BME280;42934;54.294;18.598;2023-05-23T00:18:00;100819.34;;;13.96;64.73
57048;BME280;42934;54.294;18.598;2023-05-23T00:20:29;100818.78;;;13.89;64.84
57048;BME280;42934;54.294;18.598;2023-05-23T00:22:58;100818.97;;;13.84;65.06
57048;BME280;42934;54.294;18.598;2023-05-23T00:25:27;100816.44;;;13.81;65.19
57048;BME280;42934;54.294;18.598;2023-05-23T00:28:02;100814.16;;;13.74;65.63
57048;BME280;42934;54.294;18.598;2023-05-23T00:30:32;100809.06;;;13.69;65.66
57048;BME280;42934;54.294;18.598;2023-05-23T00:33:01;100804.88;;;13.65;65.81
57048;BME280;42934;54.294;18.598;2023-05-23T00:35:31;100812.84;;;13.63;65.95
57048;BME280;42934;54.294;18.598;2023-05-23T00:37:59;100810.41;;;13.59;66.06
57048;BME280;42934;54.294;18.598;2023-05-23T00:40:29;100804.31;;;13.57;66.32
57048;BME280;42934;54.294;18.598;2023-05-23T00:42:57;100795.69;;;13.53;66.54
57048;BME280;42934;54.294;18.598;2023-05-23T00:45:28;100805.44;;;13.51;66.06
57048;BME280;42934;54.294;18.598;2023-05-23T00:47:57;100794.94;;;13.50;66.35
57048;BME280;42934;54.294;18.598;2023-05-23T00:50:27;100784.59;;;13.45;66.28
57048;BME280;42934;54.294;18.598;2023-05-23T00:52:56;100797.00;;;13.43;66.85
57048;BME280;42934;54.294;18.598;2023-05-23T00:55:27;100794.69;;;13.35;66.82
57048;BME280;42934;54.294;18.598;2023-05-23T00:57:56;100791.44;;;13.29;67.23
57048;BME280;42934;54.294;18.598;2023-05-23T01:00:25;100796.78;;;13.27;66.92
57048;BME280;42934;54.294;18.598;2023-05-23T01:02:56;100795.41;;;13.17;67.20
57048;BME280;42934;54.294;18.598;2023-05-23T01:05:25;100795.84;;;13.06;67.49
57048;BME280;42934;54.294;18.598;2023-05-23T01:07:54;100793.47;;;13.00;67.31
57048;BME280;42934;54.294;18.598;2023-05-23T01:10:25;100788.53;;;12.91;68.02
57048;BME280;42934;54.294;18.598;2023-05-23T01:12:57;100782.66;;;12.84;67.89
57048;BME280;42934;54.294;18.598;2023-05-23T01:15:31;100791.63;;;12.80;67.77
57048;BME280;42934;54.294;18.598;2023-05-23T01:18:07;100789.97;;;12.78;67.72
57048;BME280;42934;54.294;18.598;2023-05-23T01:20:39;100793.66;;;12.73;67.43
57048;BME280;42934;54.294;18.598;2023-05-23T01:23:21;100792.25;;;12.65;67.85
57048;BME280;42934;54.294;18.598;2023-05-23T01:25:57;100785.78;;;12.50;68.54
57048;BME280;42934;54.294;18.598;2023-05-23T01:28:32;100782.59;;;12.42;68.02
57048;BME280;42934;54.294;18.598;2023-05-23T01:31:05;100783.81;;;12.32;68.75
57048;BME280;42934;54.294;18.598;2023-05-23T01:33:34;100786.81;;;12.22;68.94
57048;BME280;42934;54.294;18.598;2023-05-23T01:36:04;100777.44;;;12.15;69.12
57048;BME280;42934;54.294;18.598;2023-05-23T01:38:33;100776.16;;;12.02;69.73
57048;BME280;42934;54.294;18.598;2023-05-23T01:41:02;100780.72;;;11.97;69.79
57048;BME280;42934;54.294;18.598;2023-05-23T01:43:32;100759.47;;;11.78;70.44
57048;BME280;42934;54.294;18.598;2023-05-23T01:46:01;100776.72;;;11.87;70.40
57048;BME280;42934;54.294;18.598;2023-05-23T01:48:31;100770.72;;;11.81;70.41
57048;BME280;42934;54.294;18.598;2023-05-23T01:51:00;100769.25;;;11.74;70.71
57048;BME280;42934;54.294;18.598;2023-05-23T01:53:29;100765.78;;;11.72;70.55
57048;BME280;42934;54.294;18.598;2023-05-23T01:55:58;100769.47;;;11.68;70.78
57048;BME280;42934;54.294;18.598;2023-05-23T01:58:29;100769.69;;;11.62;70.75
57048;BME280;42934;54.294;18.598;2023-05-23T02:01:00;100765.38;;;11.59;71.30
57048;BME280;42934;54.294;18.598;2023-05-23T02:03:29;100764.69;;;11.54;71.47
57048;BME280;42934;54.294;18.598;2023-05-23T02:05:58;100761.31;;;11.51;71.53
57048;BME280;42934;54.294;18.598;2023-05-23T02:08:27;100769.50;;;11.42;72.32
57048;BME280;42934;54.294;18.598;2023-05-23T02:10:56;100768.72;;;11.38;72.20
57048;BME280;42934;54.294;18.598;2023-05-23T02:13:25;100768.06;;;11.33;72.53
57048;BME280;42934;54.294;18.598;2023-05-23T02:15:54;100766.47;;;11.27;72.67
57048;BME280;42934;54.294;18.598;2023-05-23T02:18:24;100764.72;;;11.28;72.75
57048;BME280;42934;54.294;18.598;2023-05-23T02:20:55;100768.19;;;11.28;72.92
57048;BME280;42934;54.294;18.598;2023-05-23T02:23:24;100768.16;;;11.30;72.89
57048;BME280;42934;54.294;18.598;2023-05-23T02:25:53;100771.44;;;11.36;72.40
57048;BME280;42934;54.294;18.598;2023-05-23T02:28:22;100777.44;;;11.40;71.68
57048;BME280;42934;54.294;18.598;2023-05-23T02:30:51;100777.31;;;11.43;71.42
57048;BME280;42934;54.294;18.598;2023-05-23T02:33:20;100768.78;;;11.36;72.18
57048;BME280;42934;54.294;18.598;2023-05-23T02:35:53;100755.16;;;11.25;73.50
57048;BME280;42934;54.294;18.598;2023-05-23T02:38:21;100763.22;;;11.21;73.72
57048;BME280;42934;54.294;18.598;2023-05-23T02:40:50;100767.78;;;11.14;73.77
57048;BME280;42934;54.294;18.598;2023-05-23T02:43:20;100754.91;;;11.06;74.59
57048;BME280;42934;54.294;18.598;2023-05-23T02:45:49;100754.09;;;11.04;74.76
57048;BME280;42934;54.294;18.598;2023-05-23T02:48:17;100756.66;;;11.06;75.20
57048;BME280;42934;54.294;18.598;2023-05-23T02:50:46;100758.13;;;11.14;74.37
57048;BME280;42934;54.294;18.598;2023-05-23T02:53:17;100753.69;;;11.17;73.90
57048;BME280;42934;54.294;18.598;2023-05-23T02:55:46;100754.66;;;11.14;73.81
57048;BME280;42934;54.294;18.598;2023-05-23T02:58:14;100755.59;;;11.11;74.10
57048;BME280;42934;54.294;18.598;2023-05-23T03:00:43;100752.94;;;11.13;74.56
57048;BME280;42934;54.294;18.598;2023-05-23T03:03:12;100745.97;;;11.12;74.10
57048;BME280;42934;54.294;18.598;2023-05-23T03:05:41;100742.53;;;11.10;74.44
57048;BME280;42934;54.294;18.598;2023-05-23T03:08:10;100745.09;;;11.11;74.51
57048;BME280;42934;54.294;18.598;2023-05-23T03:10:41;100740.66;;;11.13;74.65
57048;BME280;42934;54.294;18.598;2023-05-23T03:13:10;100743.34;;;11.12;74.42
57048;BME280;42934;54.294;18.598;2023-05-23T03:15:39;100724.34;;;11.04;74.26
57048;BME280;42934;54.294;18.598;2023-05-23T03:18:08;100738.75;;;11.19;74.05
57048;BME280;42934;54.294;18.598;2023-05-23T03:20:37;100742.22;;;11.19;75.83
57048;BME280;42934;54.294;18.598;2023-05-23T03:23:06;100743.94;;;11.20;75.02
57048;BME280;42934;54.294;18.598;2023-05-23T03:25:35;100743.88;;;11.22;74.49
57048;BME280;42934;54.294;18.598;2023-05-23T03:28:06;100741.38;;;11.19;75.17
57048;BME280;42934;54.294;18.598;2023-05-23T03:30:35;100737.94;;;11.17;75.97
57048;BME280;42934;54.294;18.598;2023-05-23T03:33:03;100736.25;;;11.14;76.79
57048;BME280;42934;54.294;18.598;2023-05-23T03:35:34;100733.69;;;11.12;77.33
57048;BME280;42934;54.294;18.598;2023-05-23T03:38:03;100734.53;;;11.13;77.93
57048;BME280;42934;54.294;18.598;2023-05-23T03:40:32;100731.00;;;11.14;78.12
57048;BME280;42934;54.294;18.598;2023-05-23T03:43:01;100731.84;;;11.14;78.18
57048;BME280;42934;54.294;18.598;2023-05-23T03:45:33;100730.03;;;11.17;78.06
57048;BME280;42934;54.294;18.598;2023-05-23T03:48:06;100723.88;;;11.18;78.48
57048;BME280;42934;54.294;18.598;2023-05-23T03:50:35;100724.56;;;11.23;78.36
57048;BME280;42934;54.294;18.598;2023-05-23T03:53:05;100722.59;;;11.29;78.32
57048;BME280;42934;54.294;18.598;2023-05-23T03:55:35;100714.41;;;11.39;78.28
57048;BME280;42934;54.294;18.598;2023-05-23T03:58:04;100716.81;;;11.45;78.45
57048;BME280;42934;54.294;18.598;2023-05-23T04:00:34;100720.13;;;11.50;78.35
57048;BME280;42934;54.294;18.598;2023-05-23T04:03:06;100709.34;;;11.57;78.52
57048;BME280;42934;54.294;18.598;2023-05-23T04:05:35;100712.66;;;11.63;78.61
57048;BME280;42934;54.294;18.598;2023-05-23T04:08:04;100713.38;;;11.68;78.94
57048;BME280;42934;54.294;18.598;2023-05-23T04:10:34;100707.81;;;11.75;78.73
57048;BME280;42934;54.294;18.598;2023-05-23T04:13:03;100707.47;;;11.85;78.94
57048;BME280;42934;54.294;18.598;2023-05-23T04:15:34;100709.78;;;11.94;77.79
57048;BME280;42934;54.294;18.598;2023-05-23T04:18:06;100706.88;;;12.01;77.50
57048;BME280;42934;54.294;18.598;2023-05-23T04:20:36;100705.59;;;12.12;77.32
57048;BME280;42934;54.294;18.598;2023-05-23T04:23:05;100708.88;;;12.18;76.87
57048;BME280;42934;54.294;18.598;2023-05-23T04:25:37;100697.19;;;12.25;76.32
57048;BME280;42934;54.294;18.598;2023-05-23T04:28:11;100697.75;;;12.34;76.73
57048;BME280;42934;54.294;18.598;2023-05-23T04:30:42;100701.00;;;12.40;76.63
57048;BME280;42934;54.294;18.598;2023-05-23T04:33:12;100688.38;;;12.48;76.05
57048;BME280;42934;54.294;18.598;2023-05-23T04:35:41;100700.38;;;12.56;75.64
57048;BME280;42934;54.294;18.598;2023-05-23T04:38:10;100699.28;;;12.61;76.03
57048;BME280;42934;54.294;18.598;2023-05-23T04:40:40;100698.91;;;12.70;76.42
57048;BME280;42934;54.294;18.598;2023-05-23T04:43:16;100700.25;;;12.81;75.75
57048;BME280;42934;54.294;18.598;2023-05-23T04:46:08;100704.41;;;12.86;76.65
57048;BME280;42934;54.294;18.598;2023-05-23T04:48:41;100700.47;;;12.96;75.29
57048;BME280;42934;54.294;18.598;2023-05-23T04:51:11;100701.81;;;13.07;75.06
57048;BME280;42934;54.294;18.598;2023-05-23T04:53:51;100697.13;;;13.13;75.08
57048;BME280;42934;54.294;18.598;2023-05-23T04:56:20;100691.66;;;13.18;74.87
57048;BME280;42934;54.294;18.598;2023-05-23T04:59:03;100693.19;;;13.24;74.74
57048;BME280;42934;54.294;18.598;2023-05-23T05:01:33;100688.44;;;13.32;75.19
57048;BME280;42934;54.294;18.598;2023-05-23T05:04:02;100691.75;;;13.37;75.03
57048;BME280;42934;54.294;18.598;2023-05-23T05:06:31;100690.53;;;13.44;75.11
57048;BME280;42934;54.294;18.598;2023-05-23T05:09:00;100693.84;;;13.49;75.05
57048;BME280;42934;54.294;18.598;2023-05-23T05:11:29;100693.78;;;13.51;75.99
57048;BME280;42934;54.294;18.598;2023-05-23T05:13:58;100683.81;;;13.57;75.43
57048;BME280;42934;54.294;18.598;2023-05-23T05:16:27;100688.78;;;13.65;75.05
57048;BME280;42934;54.294;18.598;2023-05-23T05:18:58;100690.13;;;13.74;74.49
57048;BME280;42934;54.294;18.598;2023-05-23T05:21:27;100683.63;;;13.81;74.90
57048;BME280;42934;54.294;18.598;2023-05-23T05:23:57;100684.16;;;13.89;74.64
57048;BME280;42934;54.294;18.598;2023-05-23T05:26:27;100686.38;;;13.98;74.20
57048;BME280;42934;54.294;18.598;2023-05-23T05:28:56;100677.16;;;14.07;73.83
57048;BME280;42934;54.294;18.598;2023-05-23T05:31:26;100679.44;;;14.15;73.74
57048;BME280;42934;54.294;18.598;2023-05-23T05:33:56;100678.38;;;14.19;73.88
57048;BME280;42934;54.294;18.598;2023-05-23T05:36:26;100678.88;;;14.27;73.39
57048;BME280;42934;54.294;18.598;2023-05-23T05:38:55;100680.22;;;14.36;72.99
57048;BME280;42934;54.294;18.598;2023-05-23T05:41:25;100676.44;;;14.41;72.96
57048;BME280;42934;54.294;18.598;2023-05-23T05:43:54;100672.47;;;14.50;72.63
57048;BME280;42934;54.294;18.598;2023-05-23T05:46:23;100677.41;;;14.58;72.62
57048;BME280;42934;54.294;18.598;2023-05-23T05:48:52;100665.69;;;14.63;72.49
57048;BME280;42934;54.294;18.598;2023-05-23T05:51:22;100671.63;;;14.68;72.43
57048;BME280;42934;54.294;18.598;2023-05-23T05:53:52;100676.66;;;14.73;72.23
57048;BME280;42934;54.294;18.598;2023-05-23T05:56:21;100672.84;;;14.79;72.47
57048;BME280;42934;54.294;18.598;2023-05-23T05:58:50;100673.50;;;14.84;72.33
57048;BME280;42934;54.294;18.598;2023-05-23T06:01:20;100670.47;;;14.91;72.37
57048;BME280;42934;54.294;18.598;2023-05-23T06:03:49;100677.31;;;14.95;72.38
57048;BME280;42934;54.294;18.598;2023-05-23T06:06:19;100667.34;;;15.01;72.38
57048;BME280;42934;54.294;18.598;2023-05-23T06:08:48;100665.09;;;15.10;72.66
57048;BME280;42934;54.294;18.598;2023-05-23T06:11:19;100668.09;;;15.20;72.77
57048;BME280;42934;54.294;18.598;2023-05-23T06:13:47;100666.03;;;15.27;72.47
57048;BME280;42934;54.294;18.598;2023-05-23T06:16:16;100666.56;;;15.33;72.47
57048;BME280;42934;54.294;18.598;2023-05-23T06:18:45;100660.00;;;15.40;72.68
57048;BME280;42934;54.294;18.598;2023-05-23T06:21:15;100663.19;;;15.47;72.68
57048;BME280;42934;54.294;18.598;2023-05-23T06:23:48;100657.31;;;15.58;72.76
57048;BME280;42934;54.294;18.598;2023-05-23T06:26:18;100655.84;;;15.70;72.45
57048;BME280;42934;54.294;18.598;2023-05-23T06:28:47;100666.88;;;15.78;72.04
57048;BME280;42934;54.294;18.598;2023-05-23T06:31:16;100650.56;;;15.85;71.72
57048;BME280;42934;54.294;18.598;2023-05-23T06:33:44;100656.13;;;15.97;71.36
57048;BME280;42934;54.294;18.598;2023-05-23T06:36:13;100657.16;;;16.10;71.10
57048;BME280;42934;54.294;18.598;2023-05-23T06:38:42;100657.16;;;16.26;70.63
57048;BME280;42934;54.294;18.598;2023-05-23T06:41:11;100653.22;;;16.33;70.37
57048;BME280;42934;54.294;18.598;2023-05-23T06:43:41;100650.97;;;16.41;70.18
57048;BME280;42934;54.294;18.598;2023-05-23T06:46:13;100652.16;;;16.51;69.38
57048;BME280;42934;54.294;18.598;2023-05-23T06:48:42;100644.53;;;16.61;69.10
57048;BME280;42934;54.294;18.598;2023-05-23T06:51:12;100646.56;;;16.72;69.15
57048;BME280;42934;54.294;18.598;2023-05-23T06:53:41;100646.00;;;16.83;68.79
57048;BME280;42934;54.294;18.598;2023-05-23T06:56:10;100647.25;;;16.91;68.82
57048;BME280;42934;54.294;18.598;2023-05-23T06:58:51;100637.78;;;17.01;68.56
57048;BME280;42934;54.294;18.598;2023-05-23T07:01:21;100628.31;;;17.12;68.55
57048;BME280;42934;54.294;18.598;2023-05-23T07:03:50;100640.75;;;17.25;68.07
57048;BME280;42934;54.294;18.598;2023-05-23T07:06:20;100638.13;;;17.40;67.64
57048;BME280;42934;54.294;18.598;2023-05-23T07:08:50;100643.44;;;17.54;67.31
57048;BME280;42934;54.294;18.598;2023-05-23T07:11:21;100637.34;;;17.66;66.71
57048;BME280;42934;54.294;18.598;2023-05-23T07:13:55;100637.47;;;17.79;66.15
57048;BME280;42934;54.294;18.598;2023-05-23T07:16:40;100633.09;;;17.92;65.76
57048;BME280;42934;54.294;18.598;2023-05-23T07:19:11;100628.16;;;18.01;65.37
57048;BME280;42934;54.294;18.598;2023-05-23T07:21:49;100634.56;;;18.11;63.95
57048;BME280;42934;54.294;18.598;2023-05-23T07:24:18;100633.88;;;18.22;63.18
57048;BME280;42934;54.294;18.598;2023-05-23T07:26:50;100625.22;;;18.32;61.88
57048;BME280;42934;54.294;18.598;2023-05-23T07:29:20;100629.72;;;18.45;61.25
57048;BME280;42934;54.294;18.598;2023-05-23T07:31:52;100618.56;;;18.52;60.63
57048;BME280;42934;54.294;18.598;2023-05-23T07:34:22;100625.28;;;18.58;60.57
57048;BME280;42934;54.294;18.598;2023-05-23T07:36:55;100632.75;;;18.66;59.97
57048;BME280;42934;54.294;18.598;2023-05-23T07:39:26;100622.28;;;18.77;59.16
57048;BME280;42934;54.294;18.598;2023-05-23T07:41:57;100630.38;;;18.88;58.46
57048;BME280;42934;54.294;18.598;2023-05-23T07:44:27;100617.19;;;18.99;57.15
57048;BME280;42934;54.294;18.598;2023-05-23T07:46:56;100621.16;;;19.06;56.65
57048;BME280;42934;54.294;18.598;2023-05-23T07:49:25;100625.09;;;19.14;56.00
57048;BME280;42934;54.294;18.598;2023-05-23T07:51:55;100618.41;;;19.21;54.99
57048;BME280;42934;54.294;18.598;2023-05-23T07:54:24;100616.91;;;19.29;55.75
57048;BME280;42934;54.294;18.598;2023-05-23T07:56:57;100616.06;;;19.42;54.84
57048;BME280;42934;54.294;18.598;2023-05-23T07:59:27;100615.06;;;19.56;52.80
57048;BME280;42934;54.294;18.598;2023-05-23T08:01:57;100615.59;;;19.61;51.90
57048;BME280;42934;54.294;18.598;2023-05-23T08:04:27;100611.59;;;19.68;52.26
57048;BME280;42934;54.294;18.598;2023-05-23T08:06:56;100609.94;;;19.78;51.48
57048;BME280;42934;54.294;18.598;2023-05-23T08:09:35;100590.06;;;19.71;51.83
57048;BME280;42934;54.294;18.598;2023-05-23T08:12:04;100611.84;;;19.89;51.35
57048;BME280;42934;54.294;18.598;2023-05-23T08:14:34;100606.06;;;19.95;51.00
57048;BME280;42934;54.294;18.598;2023-05-23T08:17:29;100613.41;;;20.04;50.60
57048;BME280;42934;54.294;18.598;2023-05-23T08:19:58;100604.84;;;20.12;49.37
57048;BME280;42934;54.294;18.598;2023-05-23T08:22:29;100602.56;;;20.18;49.95
57048;BME280;42934;54.294;18.598;2023-05-23T08:24:59;100609.16;;;20.26;50.12
57048;BME280;42934;54.294;18.598;2023-05-23T08:27:30;100605.94;;;20.33;49.32
57048;BME280;42934;54.294;18.598;2023-05-23T08:30:08;100606.66;;;20.35;48.72
57048;BME280;42934;54.294;18.598;2023-05-23T08:32:38;100612.72;;;20.37;49.15
57048;BME280;42934;54.294;18.598;2023-05-23T08:35:07;100603.88;;;20.37;49.32
57048;BME280;42934;54.294;18.598;2023-05-23T08:37:37;100602.81;;;20.39;49.53
57048;BME280;42934;54.294;18.598;2023-05-23T08:40:07;100603.53;;;20.41;49.86
57048;BME280;42934;54.294;18.598;2023-05-23T08:42:45;100605.97;;;20.45;48.77
57048;BME280;42934;54.294;18.598;2023-05-23T08:45:15;100605.00;;;20.46;48.81
57048;BME280;42934;54.294;18.598;2023-05-23T08:47:45;100599.91;;;20.42;49.39
57048;BME280;42934;54.294;18.598;2023-05-23T08:50:16;100612.50;;;20.40;49.72
57048;BME280;42934;54.294;18.598;2023-05-23T08:52:52;100610.78;;;20.39;49.53
57048;BME280;42934;54.294;18.598;2023-05-23T08:55:22;100608.00;;;20.41;50.15
57048;BME280;42934;54.294;18.598;2023-05-23T08:57:53;100605.22;;;20.42;50.30
57048;BME280;42934;54.294;18.598;2023-05-23T09:00:42;100603.59;;;20.53;49.57
57048;BME280;42934;54.294;18.598;2023-05-23T09:03:12;100608.38;;;20.60;49.15
57048;BME280;42934;54.294;18.598;2023-05-23T09:06:05;100605.00;;;20.70;49.01
57048;BME280;42934;54.294;18.598;2023-05-23T09:08:34;100599.09;;;20.77;49.64
57048;BME280;42934;54.294;18.598;2023-05-23T09:11:04;100593.38;;;20.82;49.74
57048;BME280;42934;54.294;18.598;2023-05-23T09:13:37;100601.91;;;20.87;50.05
57048;BME280;42934;54.294;18.598;2023-05-23T09:16:09;100601.81;;;20.89;49.42
57048;BME280;42934;54.294;18.598;2023-05-23T09:18:51;100596.00;;;20.95;48.49
57048;BME280;42934;54.294;18.598;2023-05-23T09:21:23;100601.44;;;20.93;48.57
57048;BME280;42934;54.294;18.598;2023-05-23T09:24:16;100600.94;;;20.99;47.78
57048;BME280;42934;54.294;18.598;2023-05-23T09:26:45;100595.88;;;21.07;48.06
57048;BME280;42934;54.294;18.598;2023-05-23T09:29:17;100595.53;;;21.12;48.36
57048;BME280;42934;54.294;18.598;2023-05-23T09:31:48;100594.41;;;21.15;48.53
57048;BME280;42934;54.294;18.598;2023-05-23T09:34:17;100594.41;;;21.15;48.60
57048;BME280;42934;54.294;18.598;2023-05-23T09:36:46;100589.81;;;21.17;47.90
57048;BME280;42934;54.294;18.598;2023-05-23T09:39:17;100592.25;;;21.20;48.45
57048;BME280;42934;54.294;18.598;2023-05-23T09:41:47;100596.13;;;21.16;47.68
57048;BME280;42934;54.294;18.598;2023-05-23T09:44:21;100591.06;;;21.24;47.07
57048;BME280;42934;54.294;18.598;2023-05-23T09:46:53;100594.31;;;21.27;46.54
57048;BME280;42934;54.294;18.598;2023-05-23T09:49:27;100591.53;;;21.29;47.03
57048;BME280;42934;54.294;18.598;2023-05-23T09:51:56;100587.75;;;21.31;47.38
57048;BME280;42934;54.294;18.598;2023-05-23T09:54:25;100587.91;;;21.30;46.88
57048;BME280;42934;54.294;18.598;2023-05-23T09:56:54;100588.28;;;21.37;46.92
57048;BME280;42934;54.294;18.598;2023-05-23T09:59:24;100592.16;;;21.44;46.33
57048;BME280;42934;54.294;18.598;2023-05-23T10:01:56;100587.22;;;21.50;46.60
57048;BME280;42934;54.294;18.598;2023-05-23T10:04:29;100594.25;;;21.51;46.57
57048;BME280;42934;54.294;18.598;2023-05-23T10:06:59;100588.41;;;21.46;46.45
57048;BME280;42934;54.294;18.598;2023-05-23T10:09:32;100581.13;;;21.48;47.19
57048;BME280;42934;54.294;18.598;2023-05-23T10:12:20;100585.38;;;21.51;47.55
57048;BME280;42934;54.294;18.598;2023-05-23T10:15:02;100575.41;;;21.53;47.19
57048;BME280;42934;54.294;18.598;2023-05-23T10:17:35;100579.66;;;21.55;47.50
57048;BME280;42934;54.294;18.598;2023-05-23T10:20:09;100576.13;;;21.55;46.06
57048;BME280;42934;54.294;18.598;2023-05-23T10:22:39;100567.78;;;21.60;46.19
57048;BME280;42934;54.294;18.598;2023-05-23T10:25:08;100583.66;;;21.61;46.45
57048;BME280;42934;54.294;18.598;2023-05-23T10:27:37;100579.06;;;21.63;46.80
57048;BME280;42934;54.294;18.598;2023-05-23T10:30:07;100578.22;;;21.63;46.57
57048;BME280;42934;54.294;18.598;2023-05-23T10:32:37;100571.38;;;21.70;46.48
57048;BME280;42934;54.294;18.598;2023-05-23T10:35:09;100568.94;;;21.78;46.98
57048;BME280;42934;54.294;18.598;2023-05-23T10:37:41;100573.78;;;21.84;46.62
57048;BME280;42934;54.294;18.598;2023-05-23T10:40:16;100571.97;;;21.85;46.74
57048;BME280;42934;54.294;18.598;2023-05-23T10:42:51;100570.75;;;21.89;46.31
57048;BME280;42934;54.294;18.598;2023-05-23T10:45:22;100573.03;;;21.93;45.33
57048;BME280;42934;54.294;18.598;2023-05-23T10:47:53;100577.28;;;21.96;44.22
57048;BME280;42934;54.294;18.598;2023-05-23T10:50:32;100574.38;;;21.99;44.34
57048;BME280;42934;54.294;18.598;2023-05-23T10:53:02;100572.19;;;22.04;44.24
57048;BME280;42934;54.294;18.598;2023-05-23T10:55:31;100574.84;;;22.04;43.03
57048;BME280;42934;54.294;18.598;2023-05-23T10:58:10;100570.69;;;22.11;42.79
57048;BME280;42934;54.294;18.598;2023-05-23T11:00:46;100565.72;;;22.18;42.82
57048;BME280;42934;54.294;18.598;2023-05-23T11:03:19;100559.88;;;22.24;43.26
57048;BME280;42934;54.294;18.598;2023-05-23T11:05:58;100567.03;;;22.23;42.96
57048;BME280;42934;54.294;18.598;2023-05-23T11:08:35;100561.56;;;22.25;42.65
57048;BME280;42934;54.294;18.598;2023-05-23T11:11:14;100564.50;;;22.22;42.50
57048;BME280;42934;54.294;18.598;2023-05-23T11:13:53;100564.22;;;22.25;42.54
57048;BME280;42934;54.294;18.598;2023-05-23T11:16:23;100562.66;;;22.22;42.44
57048;BME280;42934;54.294;18.598;2023-05-23T11:18:58;100557.31;;;22.22;42.97
57048;BME280;42934;54.294;18.598;2023-05-23T11:21:48;100558.78;;;22.15;42.99
57048;BME280;42934;54.294;18.598;2023-05-23T11:24:17;100541.00;;;22.14;43.80
57048;BME280;42934;54.294;18.598;2023-05-23T11:26:56;100543.56;;;22.16;43.60
57048;BME280;42934;54.294;18.598;2023-05-23T11:29:27;100551.38;;;22.19;43.69
57048;BME280;42934;54.294;18.598;2023-05-23T11:31:56;100548.69;;;22.19;42.76
57048;BME280;42934;54.294;18.598;2023-05-23T11:34:27;100537.84;;;22.20;42.34
57048;BME280;42934;54.294;18.598;2023-05-23T11:36:56;100544.53;;;22.26;42.01
57048;BME280;42934;54.294;18.598;2023-05-23T11:39:25;100554.44;;;22.35;41.13
57048;BME280;42934;54.294;18.598;2023-05-23T11:41:59;100557.13;;;22.35;40.82
57048;BME280;42934;54.294;18.598;2023-05-23T11:44:29;100550.81;;;22.36;41.04
57048;BME280;42934;54.294;18.598;2023-05-23T11:46:58;100550.41;;;22.41;41.18
57048;BME280;42934;54.294;18.598;2023-05-23T11:49:30;100554.06;;;22.40;40.86
57048;BME280;42934;54.294;18.598;2023-05-23T11:52:00;100552.38;;;22.39;41.40
57048;BME280;42934;54.294;18.598;2023-05-23T11:54:29;100550.09;;;22.34;41.63
57048;BME280;42934;54.294;18.598;2023-05-23T11:56:58;100552.91;;;22.33;41.91
57048;BME280;42934;54.294;18.598;2023-05-23T11:59:27;100549.81;;;22.37;41.95
57048;BME280;42934;54.294;18.598;2023-05-23T12:01:56;100551.41;;;22.40;41.86
57048;BME280;42934;54.294;18.598;2023-05-23T12:04:25;100549.06;;;22.47;41.25
57048;BME280;42934;54.294;18.598;2023-05-23T12:06:56;100541.63;;;22.50;40.76
57048;BME280;42934;54.294;18.598;2023-05-23T12:09:25;100551.34;;;22.51;41.57
57048;BME280;42934;54.294;18.598;2023-05-23T12:11:54;100550.63;;;22.49;41.06
57048;BME280;42934;54.294;18.598;2023-05-23T12:14:22;100542.59;;;22.49;41.13
57048;BME280;42934;54.294;18.598;2023-05-23T12:16:56;100536.50;;;22.47;41.54
57048;BME280;42934;54.294;18.598;2023-05-23T12:19:25;100534.44;;;22.51;41.40
57048;BME280;42934;54.294;18.598;2023-05-23T12:21:56;100535.88;;;22.55;41.77
57048;BME280;42934;54.294;18.598;2023-05-23T12:24:32;100544.38;;;22.60;40.88
57048;BME280;42934;54.294;18.598;2023-05-23T12:27:01;100539.88;;;22.60;40.15
57048;BME280;42934;54.294;18.598;2023-05-23T12:29:31;100525.31;;;22.53;40.18
57048;BME280;42934;54.294;18.598;2023-05-23T12:32:02;100527.38;;;22.50;40.60
57048;BME280;42934;54.294;18.598;2023-05-23T12:34:32;100528.25;;;22.50;40.46
57048;BME280;42934;54.294;18.598;2023-05-23T12:37:02;100522.13;;;22.59;40.67
57048;BME280;42934;54.294;18.598;2023-05-23T12:39:46;100529.63;;;22.65;40.75
57048;BME280;42934;54.294;18.598;2023-05-23T12:42:15;100526.22;;;22.63;41.26
57048;BME280;42934;54.294;18.598;2023-05-23T12:44:44;100520.03;;;22.63;40.79
57048;BME280;42934;54.294;18.598;2023-05-23T12:47:15;100529.38;;;22.68;41.00
57048;BME280;42934;54.294;18.598;2023-05-23T12:49:48;100529.38;;;22.68;40.70
57048;BME280;42934;54.294;18.598;2023-05-23T12:52:18;100519.50;;;22.69;39.88
57048;BME280;42934;54.294;18.598;2023-05-23T12:54:47;100518.66;;;22.68;39.79
57048;BME280;42934;54.294;18.598;2023-05-23T12:57:16;100522.28;;;22.67;39.98
57048;BME280;42934;54.294;18.598;2023-05-23T12:59:45;100521.13;;;22.60;39.97